createdAt,value
2022-09-26T00:00:05.677Z,96.02
2022-09-26T00:00:15.679Z,95.92
2022-09-26T00:00:25.691Z,96.02
2022-09-26T00:00:35.679Z,96.12
2022-09-26T00:00:45.714Z,96.23
2022-09-26T00:00:55.739Z,96.23
2022-09-26T00:01:05.752Z,96.23
2022-09-26T00:01:15.756Z,96.23
2022-09-26T00:01:25.876Z,96.33
2022-09-26T00:01:35.798Z,96.44
2022-09-26T00:01:45.798Z,96.54
2022-09-26T00:01:55.857Z,96.70
2022-09-26T00:02:05.747Z,97.01
2022-09-26T00:02:15.737Z,97.22
2022-09-26T00:02:25.745Z,97.22
2022-09-26T00:02:35.771Z,97.32
2022-09-26T00:02:45.776Z,97.32
2022-09-26T00:02:55.758Z,97.32
2022-09-26T00:03:05.691Z,97.42
2022-09-26T00:03:15.714Z,97.42
2022-09-26T00:03:25.705Z,97.42
2022-09-26T00:03:35.695Z,97.32
2022-09-26T00:03:45.695Z,97.32
2022-09-26T00:03:55.700Z,97.22
2022-09-26T00:04:05.696Z,97.11
2022-09-26T00:04:15.697Z,97.11
2022-09-26T00:04:30.377Z,97.01
2022-09-26T00:04:36.699Z,96.80
2022-09-26T00:04:45.699Z,96.70
2022-09-26T00:04:55.701Z,96.49
2022-09-26T00:05:05.700Z,96.29
2022-09-26T00:05:15.699Z,96.19
2022-09-26T00:05:25.712Z,96.12
2022-09-26T00:05:35.702Z,96.02
2022-09-26T00:05:45.703Z,95.98
2022-09-26T00:05:55.701Z,95.98
2022-09-26T00:06:05.705Z,96.02
2022-09-26T00:06:15.725Z,96.02
2022-09-26T00:06:25.706Z,96.02
2022-09-26T00:06:35.715Z,96.12
2022-09-26T00:06:45.707Z,96.12
2022-09-26T00:06:55.717Z,96.19
2022-09-26T00:07:05.711Z,96.19
2022-09-26T00:07:15.708Z,96.33
2022-09-26T00:07:25.711Z,96.39
2022-09-26T00:07:35.723Z,96.49
2022-09-26T00:07:45.716Z,96.59
2022-09-26T00:07:55.714Z,96.59
2022-09-26T00:08:05.716Z,96.70
2022-09-26T00:08:15.744Z,96.80
2022-09-26T00:08:25.717Z,96.91
2022-09-26T00:08:35.729Z,97.11
2022-09-26T00:08:45.723Z,97.22
2022-09-26T00:08:55.729Z,97.32
2022-09-26T00:09:05.797Z,97.32
2022-09-26T00:09:15.724Z,97.32
2022-09-26T00:09:25.720Z,97.32
2022-09-26T00:09:35.733Z,97.32
2022-09-26T00:09:45.724Z,97.32
2022-09-26T00:09:55.723Z,97.42
2022-09-26T00:10:05.726Z,97.53
2022-09-26T00:10:15.723Z,97.53
2022-09-26T00:10:25.723Z,97.53
2022-09-26T00:10:35.740Z,97.42
2022-09-26T00:10:45.726Z,97.32
2022-09-26T00:10:55.725Z,97.32
2022-09-26T00:11:05.730Z,97.32
2022-09-26T00:11:15.732Z,97.22
2022-09-26T00:11:25.728Z,97.22
2022-09-26T00:11:35.770Z,97.32
2022-09-26T00:11:45.727Z,97.42
2022-09-26T00:11:55.731Z,97.53
2022-09-26T00:12:05.733Z,97.53
2022-09-26T00:12:15.732Z,97.53
2022-09-26T00:12:25.731Z,97.53
2022-09-26T00:12:35.732Z,97.53
2022-09-26T00:12:45.751Z,97.53
2022-09-26T00:12:55.734Z,97.53
2022-09-26T00:13:05.734Z,97.42
2022-09-26T00:13:15.733Z,97.22
2022-09-26T00:13:25.739Z,97.22
2022-09-26T00:13:35.737Z,97.11
2022-09-26T00:13:45.751Z,97.11
2022-09-26T00:13:55.740Z,97.22
2022-09-26T00:14:05.740Z,97.22
2022-09-26T00:14:15.737Z,97.42
2022-09-26T00:14:25.739Z,97.53
2022-09-26T00:14:35.748Z,97.53
2022-09-26T00:14:45.754Z,97.53
2022-09-26T00:14:55.742Z,97.53
2022-09-26T00:15:05.744Z,97.53
2022-09-26T00:15:15.743Z,97.53
2022-09-26T00:15:25.746Z,97.53
2022-09-26T00:15:35.745Z,97.53
2022-09-26T00:15:45.763Z,97.53
2022-09-26T00:15:55.747Z,97.53
2022-09-26T00:16:05.768Z,97.53
2022-09-26T00:16:15.812Z,97.53
2022-09-26T00:16:25.805Z,97.53
2022-09-26T00:16:35.889Z,97.53
2022-09-26T00:16:45.800Z,97.53
2022-09-26T00:16:55.933Z,97.53
2022-09-26T00:17:05.818Z,97.63
2022-09-26T00:17:15.759Z,97.74
2022-09-26T00:17:25.757Z,97.74
2022-09-26T00:17:35.758Z,97.84
2022-09-26T00:17:45.773Z,97.84
2022-09-26T00:17:55.756Z,97.84
2022-09-26T00:18:05.756Z,97.94
2022-09-26T00:18:15.758Z,97.94
2022-09-26T00:18:25.766Z,97.94
2022-09-26T00:18:35.766Z,97.94
2022-09-26T00:18:45.780Z,97.94
2022-09-26T00:18:55.763Z,97.94
2022-09-26T00:19:05.866Z,97.94
2022-09-26T00:19:15.765Z,98.05
2022-09-26T00:19:25.765Z,98.05
2022-09-26T00:19:35.766Z,97.94
2022-09-26T00:19:45.782Z,97.94
2022-09-26T00:19:55.770Z,97.84
2022-09-26T00:20:05.770Z,97.69
2022-09-26T00:20:15.772Z,97.59
2022-09-26T00:20:25.773Z,97.53
2022-09-26T00:20:35.774Z,97.32
2022-09-26T00:20:45.785Z,97.22
2022-09-26T00:20:55.778Z,97.17
2022-09-26T00:21:05.775Z,97.17
2022-09-26T00:21:15.774Z,97.28
2022-09-26T00:21:25.785Z,97.28
2022-09-26T00:21:35.777Z,97.28
2022-09-26T00:21:45.793Z,97.28
2022-09-26T00:21:55.862Z,97.28
2022-09-26T00:22:05.777Z,97.38
2022-09-26T00:22:15.784Z,97.38
2022-09-26T00:22:25.786Z,97.38
2022-09-26T00:22:35.783Z,97.38
2022-09-26T00:22:45.791Z,97.38
2022-09-26T00:22:55.782Z,97.38
2022-09-26T00:23:05.787Z,97.28
2022-09-26T00:23:15.786Z,97.38
2022-09-26T00:23:25.789Z,97.38
2022-09-26T00:23:35.785Z,97.38
2022-09-26T00:23:45.792Z,97.38
2022-09-26T00:23:55.787Z,97.38
2022-09-26T00:24:05.787Z,97.49
2022-09-26T00:24:15.786Z,97.59
2022-09-26T00:24:25.793Z,97.69
2022-09-26T00:24:35.789Z,97.69
2022-09-26T00:24:45.807Z,97.79
2022-09-26T00:24:55.790Z,97.89
2022-09-26T00:25:05.792Z,97.89
2022-09-26T00:25:15.788Z,98.00
2022-09-26T00:25:25.792Z,98.10
2022-09-26T00:25:35.792Z,98.31
2022-09-26T00:25:45.804Z,98.41
2022-09-26T00:25:55.797Z,98.41
2022-09-26T00:26:05.795Z,98.52
2022-09-26T00:26:15.794Z,98.52
2022-09-26T00:26:25.801Z,98.52
2022-09-26T00:26:35.799Z,98.57
2022-09-26T00:26:45.805Z,98.57
2022-09-26T00:26:55.801Z,98.68
2022-09-26T00:27:05.809Z,98.68
2022-09-26T00:27:15.801Z,98.78
2022-09-26T00:27:25.804Z,98.78
2022-09-26T00:27:35.809Z,98.78
2022-09-26T00:27:45.804Z,98.78
2022-09-26T00:27:55.809Z,98.68
2022-09-26T00:28:05.805Z,98.68
2022-09-26T00:28:15.805Z,98.68
2022-09-26T00:28:25.811Z,98.57
2022-09-26T00:28:35.810Z,98.57
2022-09-26T00:28:45.806Z,98.47
2022-09-26T00:28:55.819Z,98.47
2022-09-26T00:29:05.888Z,98.47
2022-09-26T00:29:16.020Z,98.47
2022-09-26T00:29:25.814Z,98.47
2022-09-26T00:29:35.810Z,98.47
2022-09-26T00:29:45.811Z,98.47
2022-09-26T00:29:55.822Z,98.68
2022-09-26T00:30:05.818Z,98.63
2022-09-26T00:30:15.813Z,98.63
2022-09-26T00:30:25.874Z,98.63
2022-09-26T00:30:35.885Z,98.63
2022-09-26T00:30:45.891Z,98.63
2022-09-26T00:30:55.886Z,98.63
2022-09-26T00:31:05.962Z,98.53
2022-09-26T00:31:15.940Z,98.63
2022-09-26T00:31:25.820Z,98.53
2022-09-26T00:31:35.822Z,98.53
2022-09-26T00:31:45.910Z,98.53
2022-09-26T00:31:55.843Z,98.53
2022-09-26T00:32:05.823Z,98.32
2022-09-26T00:32:15.824Z,98.11
2022-09-26T00:32:25.837Z,98.11
2022-09-26T00:32:35.823Z,98.11
2022-09-26T00:32:45.823Z,98.01
2022-09-26T00:32:55.841Z,97.81
2022-09-26T00:33:05.827Z,97.71
2022-09-26T00:33:15.830Z,97.50
2022-09-26T00:33:25.841Z,97.50
2022-09-26T00:33:35.832Z,97.50
2022-09-26T00:33:45.830Z,97.60
2022-09-26T00:33:55.843Z,97.60
2022-09-26T00:34:05.851Z,97.60
2022-09-26T00:34:15.832Z,97.60
2022-09-26T00:35:36.315Z,97.91
2022-09-26T00:35:46.297Z,97.91
2022-09-26T00:35:56.306Z,97.91
2022-09-26T00:36:06.305Z,97.91
2022-09-26T00:36:16.295Z,98.01
2022-09-26T00:36:38.106Z,98.11
2022-09-26T00:36:39.533Z,98.11
2022-09-26T00:36:48.547Z,98.22
2022-09-26T00:36:58.531Z,98.32
2022-09-26T00:37:08.533Z,98.43
2022-09-26T00:37:18.546Z,98.43
2022-09-26T00:37:28.552Z,98.43
2022-09-26T00:37:38.563Z,98.32
2022-09-26T00:37:48.533Z,98.22
2022-09-26T00:37:58.534Z,98.11
2022-09-26T00:38:08.562Z,98.11
2022-09-26T00:38:18.545Z,98.01
2022-09-26T00:38:28.548Z,98.01
2022-09-26T00:38:38.543Z,98.01
2022-09-26T00:38:48.541Z,97.91
2022-09-26T00:38:58.540Z,97.91
2022-09-26T00:39:08.642Z,97.81
2022-09-26T00:39:18.538Z,97.91
2022-09-26T00:39:28.548Z,98.01
2022-09-26T00:39:38.548Z,98.11
2022-09-26T00:39:48.543Z,98.11
2022-09-26T00:39:58.548Z,98.11
2022-09-26T00:40:08.563Z,98.11
2022-09-26T00:40:18.572Z,98.01
2022-09-26T00:40:28.600Z,98.01
2022-09-26T00:40:38.596Z,97.91
2022-09-26T00:40:48.580Z,97.81
2022-09-26T00:40:58.654Z,97.81
2022-09-26T00:41:08.566Z,97.81
2022-09-26T00:41:18.552Z,97.71
2022-09-26T00:41:28.551Z,97.71
2022-09-26T00:41:38.562Z,97.76
2022-09-26T00:41:48.554Z,97.91
2022-09-26T00:41:58.558Z,97.86
2022-09-26T00:42:08.558Z,97.97
2022-09-26T00:42:18.572Z,97.97
2022-09-26T00:42:28.558Z,97.97
2022-09-26T00:42:38.559Z,97.97
2022-09-26T00:42:48.561Z,97.97
2022-09-26T00:42:58.561Z,97.97
2022-09-26T00:43:08.559Z,97.97
2022-09-26T00:43:18.578Z,97.97
2022-09-26T00:43:28.561Z,97.97
2022-09-26T00:43:38.564Z,97.97
2022-09-26T00:43:48.564Z,98.07
2022-09-26T00:43:58.573Z,98.07
2022-09-26T00:44:08.564Z,98.07
2022-09-26T00:44:18.583Z,98.07
2022-09-26T00:44:28.569Z,97.97
2022-09-26T00:44:38.574Z,97.97
2022-09-26T00:44:48.566Z,97.97
2022-09-26T00:44:58.571Z,97.97
2022-09-26T00:45:08.569Z,98.01
2022-09-26T00:45:18.581Z,97.97
2022-09-26T00:45:28.574Z,97.86
2022-09-26T00:45:38.647Z,97.91
2022-09-26T00:45:48.649Z,97.86
2022-09-26T00:45:58.645Z,97.86
2022-09-26T00:46:08.603Z,97.91
2022-09-26T00:46:18.666Z,97.91
2022-09-26T00:46:28.640Z,97.91
2022-09-26T00:46:38.580Z,97.86
2022-09-26T00:46:48.583Z,98.01
2022-09-26T00:46:58.610Z,97.97
2022-09-26T00:47:08.581Z,97.97
2022-09-26T00:47:18.599Z,98.01
2022-09-26T00:47:28.584Z,97.91
2022-09-26T00:47:38.583Z,97.91
2022-09-26T00:47:48.584Z,97.91
2022-09-26T00:47:58.593Z,97.91
2022-09-26T00:48:08.586Z,97.91
2022-09-26T00:48:18.655Z,98.01
2022-09-26T00:48:28.589Z,98.01
2022-09-26T00:48:38.589Z,98.01
2022-09-26T00:48:48.607Z,98.01
2022-09-26T00:48:58.586Z,98.01
2022-09-26T00:49:08.623Z,98.01
2022-09-26T00:49:18.599Z,98.01
2022-09-26T00:49:28.592Z,98.01
2022-09-26T00:49:38.590Z,98.11
2022-09-26T00:49:48.597Z,98.11
2022-09-26T00:49:58.594Z,98.07
2022-09-26T00:50:08.592Z,98.11
2022-09-26T00:50:18.604Z,98.07
2022-09-26T00:50:28.594Z,98.18
2022-09-26T00:50:38.592Z,98.18
2022-09-26T00:50:48.594Z,98.18
2022-09-26T00:50:58.627Z,98.18
2022-09-26T00:51:08.593Z,98.28
2022-09-26T00:51:18.603Z,98.28
2022-09-26T00:51:28.601Z,98.28
2022-09-26T00:51:38.599Z,98.28
2022-09-26T00:51:48.598Z,98.28
2022-09-26T00:51:58.600Z,98.28
2022-09-26T00:52:08.602Z,98.28
2022-09-26T00:52:18.619Z,98.38
2022-09-26T00:52:28.602Z,98.38
2022-09-26T00:52:38.605Z,98.49
2022-09-26T00:52:48.606Z,98.49
2022-09-26T00:52:58.608Z,98.49
2022-09-26T00:53:08.608Z,98.49
2022-09-26T00:53:18.616Z,98.38
2022-09-26T00:53:28.607Z,98.38
2022-09-26T00:53:38.605Z,98.28
2022-09-26T00:53:48.604Z,98.18
2022-09-26T00:53:58.609Z,98.18
2022-09-26T00:54:08.606Z,98.07
2022-09-26T00:54:18.628Z,97.97
2022-09-26T00:54:28.608Z,97.86
2022-09-26T00:54:38.609Z,97.66
2022-09-26T00:54:48.611Z,97.45
2022-09-26T00:54:58.612Z,97.45
2022-09-26T00:55:08.614Z,97.34
2022-09-26T00:55:18.612Z,97.34
2022-09-26T00:55:28.631Z,97.45
2022-09-26T00:55:38.618Z,97.34
2022-09-26T00:55:48.619Z,97.34
2022-09-26T00:55:58.614Z,97.25
2022-09-26T00:56:08.615Z,97.25
2022-09-26T00:56:18.619Z,97.14
2022-09-26T00:56:28.628Z,97.14
2022-09-26T00:56:38.618Z,97.04
2022-09-26T00:56:48.621Z,97.04
2022-09-26T00:56:58.626Z,97.04
2022-09-26T00:58:15.383Z,97.04
2022-09-26T00:59:43.723Z,97.50
2022-09-26T00:59:53.736Z,97.50
2022-09-26T01:00:03.722Z,97.60
2022-09-26T01:00:13.719Z,97.60
2022-09-26T01:00:23.762Z,97.71
2022-09-26T01:00:34.255Z,97.81
2022-09-26T01:04:09.345Z,98.32
2022-09-26T01:04:19.326Z,98.32
2022-09-26T01:04:29.335Z,98.32
2022-09-26T01:04:39.343Z,98.32
2022-09-26T01:04:49.332Z,98.32
2022-09-26T01:04:59.338Z,98.22
2022-09-26T01:06:27.662Z,98.43
2022-09-26T01:06:37.679Z,98.43
2022-09-26T01:06:47.659Z,98.43
2022-09-26T01:06:57.660Z,98.32
2022-09-26T01:07:07.682Z,98.32
2022-09-26T01:09:36.568Z,98.63
2022-09-26T01:09:46.543Z,98.63
2022-09-26T01:09:56.541Z,98.53
2022-09-26T01:10:06.563Z,98.53
2022-09-26T01:10:16.547Z,98.53
2022-09-26T01:10:26.552Z,98.53
2022-09-26T01:10:36.575Z,98.53
2022-09-26T01:11:54.185Z,98.63
2022-09-26T01:12:04.189Z,98.63
2022-09-26T01:12:14.177Z,98.63
2022-09-26T01:12:24.179Z,98.63
2022-09-26T01:12:34.195Z,98.53
2022-09-26T01:12:44.182Z,98.53
2022-09-26T01:14:02.583Z,98.53
2022-09-26T01:14:12.596Z,98.53
2022-09-26T01:14:22.585Z,98.53
2022-09-26T01:15:39.113Z,98.53
2022-09-26T01:15:49.092Z,98.53
2022-09-26T01:15:59.102Z,98.53
2022-09-26T01:18:28.837Z,98.53
2022-09-26T01:18:38.848Z,98.53
2022-09-26T01:18:48.843Z,98.53
2022-09-26T01:20:09.301Z,98.43
2022-09-26T01:20:19.306Z,98.47
2022-09-26T01:20:29.290Z,98.43
2022-09-26T01:20:56.365Z,98.47
2022-09-26T01:20:56.694Z,98.57
2022-09-26T01:21:06.703Z,98.57
2022-09-26T01:21:16.689Z,98.53
2022-09-26T01:21:26.689Z,98.53
2022-09-26T01:21:36.706Z,98.53
2022-09-26T01:21:46.694Z,98.57
2022-09-26T01:21:56.699Z,98.53
2022-09-26T01:22:06.694Z,98.57
2022-09-26T01:22:28.385Z,98.53
2022-09-26T01:22:28.712Z,98.57
2022-09-26T01:22:38.732Z,98.47
2022-09-26T01:22:48.717Z,98.43
2022-09-26T01:22:58.714Z,98.47
2022-09-26T01:23:08.731Z,98.47
2022-09-26T01:23:18.718Z,98.47
2022-09-26T01:23:28.718Z,98.47
2022-09-26T01:23:38.717Z,98.57
2022-09-26T01:23:48.721Z,98.57
2022-09-26T01:23:58.738Z,98.57
2022-09-26T01:24:08.719Z,98.57
2022-09-26T01:24:18.752Z,98.47
2022-09-26T01:24:28.720Z,98.47
2022-09-26T01:24:38.721Z,98.57
2022-09-26T01:24:48.724Z,98.57
2022-09-26T01:24:58.736Z,98.57
2022-09-26T01:25:16.405Z,98.57
2022-09-26T01:25:18.730Z,98.53
2022-09-26T01:25:28.744Z,98.57
2022-09-26T01:25:38.722Z,98.57
2022-09-26T01:25:48.724Z,98.53
2022-09-26T01:25:58.740Z,98.57
2022-09-26T01:26:10.146Z,98.47
2022-09-26T01:26:18.725Z,98.47
2022-09-26T01:26:28.726Z,98.47
2022-09-26T01:26:38.732Z,98.37
2022-09-26T01:26:48.738Z,98.37
2022-09-26T01:26:58.736Z,98.37
2022-09-26T01:27:08.729Z,98.37
2022-09-26T01:27:18.728Z,98.37
2022-09-26T01:27:28.733Z,98.27
2022-09-26T01:27:38.734Z,98.27
2022-09-26T01:27:48.745Z,98.27
2022-09-26T01:27:58.734Z,98.27
2022-09-26T01:28:08.734Z,98.27
2022-09-26T01:28:18.724Z,98.27
2022-09-26T01:28:28.736Z,98.27
2022-09-26T01:28:38.736Z,98.27
2022-09-26T01:28:48.752Z,98.27
2022-09-26T01:28:58.741Z,98.22
2022-09-26T01:29:08.771Z,98.27
2022-09-26T01:29:18.742Z,98.27
2022-09-26T01:29:28.742Z,98.27
2022-09-26T01:29:38.764Z,98.27
2022-09-26T01:29:48.757Z,98.27
2022-09-26T01:29:58.743Z,98.37
2022-09-26T01:30:08.749Z,98.37
2022-09-26T01:30:18.747Z,98.37
2022-09-26T01:30:28.803Z,98.37
2022-09-26T01:30:38.791Z,98.37
2022-09-26T01:30:48.785Z,98.37
2022-09-26T01:30:58.829Z,98.27
2022-09-26T01:31:08.781Z,98.27
2022-09-26T01:31:18.796Z,98.27
2022-09-26T01:31:28.757Z,98.27
2022-09-26T01:31:38.754Z,98.37
2022-09-26T01:31:48.767Z,98.37
2022-09-26T01:31:58.753Z,98.37
2022-09-26T01:32:08.756Z,98.27
2022-09-26T01:32:18.758Z,98.27
2022-09-26T01:32:28.762Z,98.27
2022-09-26T01:32:38.762Z,98.27
2022-09-26T01:32:48.775Z,98.16
2022-09-26T01:32:58.758Z,98.16
2022-09-26T01:33:10.177Z,98.16
2022-09-26T01:33:18.765Z,98.16
2022-09-26T01:33:28.761Z,98.06
2022-09-26T01:33:38.761Z,98.06
2022-09-26T01:33:48.773Z,98.06
2022-09-26T01:33:58.762Z,98.06
2022-09-26T01:34:08.767Z,97.96
2022-09-26T01:34:18.759Z,97.96
2022-09-26T01:34:28.761Z,97.96
2022-09-26T01:34:38.764Z,97.96
2022-09-26T01:34:48.780Z,97.96
2022-09-26T01:34:58.760Z,98.06
2022-09-26T01:35:08.765Z,98.06
2022-09-26T01:35:18.850Z,98.06
2022-09-26T01:35:28.766Z,98.06
2022-09-26T01:35:38.764Z,98.06
2022-09-26T01:35:48.781Z,98.06
2022-09-26T01:35:58.764Z,98.06
2022-09-26T01:36:08.769Z,98.06
2022-09-26T01:36:18.771Z,98.06
2022-09-26T01:36:28.772Z,98.06
2022-09-26T01:36:38.768Z,97.96
2022-09-26T01:36:48.787Z,97.96
2022-09-26T01:36:58.768Z,97.96
2022-09-26T01:37:08.768Z,97.96
2022-09-26T01:37:18.770Z,97.96
2022-09-26T01:37:28.770Z,98.06
2022-09-26T01:37:38.771Z,98.06
2022-09-26T01:37:48.786Z,98.06
2022-09-26T01:37:58.774Z,98.06
2022-09-26T01:38:08.781Z,98.06
2022-09-26T01:38:18.778Z,98.06
2022-09-26T01:38:28.773Z,98.06
2022-09-26T01:38:38.775Z,97.96
2022-09-26T01:38:48.790Z,97.96
2022-09-26T01:38:58.775Z,97.85
2022-09-26T01:39:08.799Z,97.85
2022-09-26T01:39:18.782Z,97.85
2022-09-26T01:39:28.776Z,97.75
2022-09-26T01:39:38.775Z,97.85
2022-09-26T01:39:48.797Z,97.85
2022-09-26T01:39:58.780Z,97.85
2022-09-26T01:40:08.782Z,97.85
2022-09-26T01:40:18.845Z,97.96
2022-09-26T01:40:28.832Z,97.96
2022-09-26T01:40:38.850Z,98.06
2022-09-26T01:40:48.879Z,98.06
2022-09-26T01:40:58.874Z,98.16
2022-09-26T01:41:08.786Z,98.16
2022-09-26T01:41:18.788Z,98.16
2022-09-26T01:41:28.783Z,98.27
2022-09-26T01:41:38.784Z,98.27
2022-09-26T01:41:48.807Z,98.27
2022-09-26T01:41:58.792Z,98.27
2022-09-26T01:42:08.789Z,98.27
2022-09-26T01:42:18.787Z,98.37
2022-09-26T01:42:28.798Z,98.47
2022-09-26T01:42:38.793Z,98.57
2022-09-26T01:42:48.803Z,98.68
2022-09-26T01:42:58.792Z,98.78
2022-09-26T01:43:08.793Z,98.78
2022-09-26T01:43:18.798Z,98.88
2022-09-26T01:43:28.796Z,98.88
2022-09-26T01:43:38.798Z,98.88
2022-09-26T01:43:48.811Z,98.99
2022-09-26T01:43:58.795Z,98.99
2022-09-26T01:44:08.797Z,99.09
2022-09-26T01:44:18.797Z,99.09
2022-09-26T01:44:28.801Z,99.09
2022-09-26T01:44:38.811Z,99.19
2022-09-26T01:44:48.821Z,99.19
2022-09-26T01:44:58.803Z,99.19
2022-09-26T01:45:08.800Z,99.30
2022-09-26T01:45:18.802Z,99.30
2022-09-26T01:45:28.889Z,99.30
2022-09-26T01:45:38.853Z,99.30
2022-09-26T01:45:48.863Z,99.30
2022-09-26T01:45:58.869Z,99.30
2022-09-26T01:46:08.865Z,99.19
2022-09-26T01:46:18.873Z,99.19
2022-09-26T01:46:28.888Z,99.15
2022-09-26T01:46:38.815Z,99.19
2022-09-26T01:46:48.823Z,99.19
2022-09-26T01:46:58.812Z,99.19
2022-09-26T01:47:08.795Z,99.19
2022-09-26T01:47:18.816Z,99.05
2022-09-26T01:47:28.812Z,99.09
2022-09-26T01:47:38.817Z,99.09
2022-09-26T01:47:48.827Z,99.05
2022-09-26T01:47:58.812Z,99.19
2022-09-26T01:48:08.816Z,99.15
2022-09-26T01:48:18.823Z,99.15
2022-09-26T01:48:28.817Z,99.25
2022-09-26T01:48:38.819Z,99.25
2022-09-26T01:48:48.837Z,99.25
2022-09-26T01:48:58.830Z,99.25
2022-09-26T01:49:08.873Z,99.25
2022-09-26T01:49:18.819Z,99.25
2022-09-26T01:49:28.820Z,99.25
2022-09-26T01:49:38.821Z,99.25
2022-09-26T01:49:48.824Z,99.25
2022-09-26T01:49:58.840Z,99.35
2022-09-26T01:50:08.833Z,99.35
2022-09-26T01:50:18.826Z,99.35
2022-09-26T01:50:28.830Z,99.35
2022-09-26T01:50:38.827Z,99.35
2022-09-26T01:50:48.830Z,99.35
2022-09-26T01:50:58.840Z,99.35
2022-09-26T01:51:08.831Z,99.35
2022-09-26T01:51:18.830Z,99.35
2022-09-26T01:51:28.829Z,99.46
2022-09-26T01:51:38.832Z,99.46
2022-09-26T01:51:48.835Z,99.46
2022-09-26T01:51:58.834Z,99.35
2022-09-26T01:52:08.848Z,99.35
2022-09-26T01:52:18.838Z,99.35
2022-09-26T01:52:28.837Z,99.46
2022-09-26T01:52:38.845Z,99.35
2022-09-26T01:52:48.847Z,99.46
2022-09-26T01:52:58.839Z,99.46
2022-09-26T01:53:08.854Z,99.46
2022-09-26T01:53:18.856Z,99.46
2022-09-26T01:53:28.841Z,99.46
2022-09-26T01:53:38.841Z,99.46
2022-09-26T01:53:48.847Z,99.46
2022-09-26T01:53:58.842Z,99.46
2022-09-26T01:54:08.860Z,99.46
2022-09-26T01:54:18.845Z,99.46
2022-09-26T01:54:28.830Z,99.46
2022-09-26T01:54:38.846Z,99.46
2022-09-26T01:54:48.845Z,99.46
2022-09-26T01:54:58.849Z,99.46
2022-09-26T01:55:08.863Z,99.46
2022-09-26T01:55:18.847Z,99.46
2022-09-26T01:55:28.849Z,99.56
2022-09-26T01:55:38.849Z,99.56
2022-09-26T01:55:48.847Z,99.56
2022-09-26T01:55:58.853Z,99.56
2022-09-26T01:56:08.869Z,99.56
2022-09-26T01:56:18.859Z,99.56
2022-09-26T01:56:28.851Z,99.56
2022-09-26T01:56:38.851Z,99.56
2022-09-26T01:56:48.854Z,99.56
2022-09-26T01:56:58.853Z,99.56
2022-09-26T01:57:08.870Z,99.56
2022-09-26T01:57:18.856Z,99.56
2022-09-26T01:57:28.854Z,99.56
2022-09-26T01:57:38.853Z,99.56
2022-09-26T01:57:48.857Z,99.56
2022-09-26T01:57:58.862Z,99.56
2022-09-26T01:58:08.867Z,99.56
2022-09-26T01:58:18.860Z,99.56
2022-09-26T01:58:28.861Z,99.56
2022-09-26T01:58:38.860Z,99.56
2022-09-26T01:58:48.863Z,99.56
2022-09-26T01:58:58.865Z,99.46
2022-09-26T01:59:08.911Z,99.46
2022-09-26T01:59:18.885Z,99.35
2022-09-26T01:59:28.861Z,99.35
2022-09-26T01:59:38.876Z,99.35
2022-09-26T01:59:48.862Z,99.25
2022-09-26T01:59:58.867Z,99.25
2022-09-26T02:00:08.868Z,99.25
2022-09-26T02:00:18.881Z,99.25
2022-09-26T02:00:28.870Z,99.25
2022-09-26T02:00:38.886Z,99.25
2022-09-26T02:00:48.908Z,99.15
2022-09-26T02:00:58.926Z,99.15
2022-09-26T02:01:08.976Z,99.15
2022-09-26T02:01:18.959Z,99.15
2022-09-26T02:01:28.961Z,99.15
2022-09-26T02:01:38.972Z,99.15
2022-09-26T02:01:48.961Z,99.15
2022-09-26T02:01:58.923Z,99.15
2022-09-26T02:02:08.978Z,99.05
2022-09-26T02:02:18.938Z,99.05
2022-09-26T02:02:29.118Z,99.05
2022-09-26T02:02:38.936Z,99.05
2022-09-26T02:02:48.961Z,99.05
2022-09-26T02:02:58.884Z,98.94
2022-09-26T02:03:08.880Z,98.94
2022-09-26T02:03:18.887Z,98.94
2022-09-26T02:03:28.885Z,98.94
2022-09-26T02:03:38.897Z,98.94
2022-09-26T02:03:48.882Z,98.84
2022-09-26T02:03:58.886Z,98.84
2022-09-26T02:04:08.880Z,98.84
2022-09-26T02:04:18.885Z,98.84
2022-09-26T02:04:28.883Z,98.94
2022-09-26T02:04:38.909Z,98.84
2022-09-26T02:04:48.885Z,98.84
2022-09-26T02:04:58.891Z,98.94
2022-09-26T02:05:08.896Z,98.94
2022-09-26T02:05:18.887Z,98.94
2022-09-26T02:05:28.902Z,98.94
2022-09-26T02:05:38.906Z,98.94
2022-09-26T02:05:48.899Z,98.94
2022-09-26T02:05:58.896Z,98.94
2022-09-26T02:06:08.894Z,98.94
2022-09-26T02:06:18.895Z,98.94
2022-09-26T02:06:28.896Z,98.94
2022-09-26T02:06:38.898Z,98.84
2022-09-26T02:06:48.910Z,98.84
2022-09-26T02:06:58.901Z,98.84
2022-09-26T02:07:08.905Z,98.84
2022-09-26T02:07:18.898Z,98.84
2022-09-26T02:07:28.897Z,98.84
2022-09-26T02:07:38.912Z,98.84
2022-09-26T02:07:48.915Z,98.84
2022-09-26T02:07:58.905Z,98.74
2022-09-26T02:08:08.912Z,98.74
2022-09-26T02:08:18.915Z,98.74
2022-09-26T02:08:28.906Z,98.74
2022-09-26T02:08:38.923Z,98.63
2022-09-26T02:08:48.921Z,98.63
2022-09-26T02:08:58.920Z,98.63
2022-09-26T02:09:08.981Z,98.53
2022-09-26T02:09:18.915Z,98.53
2022-09-26T02:09:28.910Z,98.53
2022-09-26T02:09:38.926Z,98.53
2022-09-26T02:09:48.936Z,98.53
2022-09-26T02:09:58.911Z,98.53
2022-09-26T02:10:08.910Z,98.53
2022-09-26T02:10:18.913Z,98.53
2022-09-26T02:10:44.918Z,98.53
2022-09-26T02:10:45.248Z,98.53
2022-09-26T02:10:55.269Z,98.53
2022-09-26T02:11:05.252Z,98.53
2022-09-26T02:11:15.261Z,98.43
2022-09-26T02:11:25.271Z,98.43
2022-09-26T02:12:41.732Z,98.43
2022-09-26T02:12:51.711Z,98.43
2022-09-26T02:13:01.723Z,98.43
2022-09-26T02:13:11.718Z,98.43
2022-09-26T02:13:21.720Z,98.43
2022-09-26T02:13:31.738Z,98.43
2022-09-26T02:13:41.718Z,98.53
2022-09-26T02:13:51.714Z,98.53
2022-09-26T02:14:01.721Z,98.53
2022-09-26T02:14:11.716Z,98.53
2022-09-26T02:14:21.732Z,98.53
2022-09-26T02:14:31.717Z,98.53
2022-09-26T02:14:41.720Z,98.53
2022-09-26T02:17:07.893Z,98.43
2022-09-26T02:17:17.899Z,98.32
2022-09-26T02:17:27.891Z,98.32
2022-09-26T02:17:37.888Z,98.32
2022-09-26T02:17:47.907Z,98.32
2022-09-26T02:17:57.901Z,98.32
2022-09-26T02:19:14.559Z,98.32
2022-09-26T02:19:24.337Z,98.32
2022-09-26T02:19:34.350Z,98.32
2022-09-26T02:19:44.336Z,98.32
2022-09-26T02:19:54.338Z,98.32
2022-09-26T02:20:04.352Z,98.32
2022-09-26T02:20:14.339Z,98.43
2022-09-26T02:20:24.345Z,98.43
2022-09-26T02:20:34.346Z,98.43
2022-09-26T02:20:44.347Z,98.43
2022-09-26T02:20:54.363Z,98.43
2022-09-26T02:21:04.343Z,98.43
2022-09-26T02:21:14.345Z,98.32
2022-09-26T02:21:24.338Z,98.32
2022-09-26T02:21:34.350Z,98.32
2022-09-26T02:21:44.349Z,98.32
2022-09-26T02:21:54.361Z,98.32
2022-09-26T02:22:04.348Z,98.32
2022-09-26T02:22:14.337Z,98.32
2022-09-26T02:22:24.353Z,98.32
2022-09-26T02:22:34.352Z,98.22
2022-09-26T02:22:44.356Z,98.22
2022-09-26T02:22:54.371Z,98.22
2022-09-26T02:23:04.353Z,98.22
2022-09-26T02:23:14.353Z,98.22
2022-09-26T02:23:24.365Z,98.11
2022-09-26T02:23:34.356Z,98.11
2022-09-26T02:23:44.359Z,98.11
2022-09-26T02:23:54.369Z,98.11
2022-09-26T02:24:04.360Z,98.11
2022-09-26T02:24:14.361Z,98.11
2022-09-26T02:24:24.366Z,98.11
2022-09-26T02:24:34.363Z,98.11
2022-09-26T02:24:44.400Z,98.11
2022-09-26T02:24:54.376Z,98.11
2022-09-26T02:25:04.495Z,98.11
2022-09-26T02:25:14.362Z,98.01
2022-09-26T02:25:24.368Z,98.01
2022-09-26T02:25:34.364Z,98.01
2022-09-26T02:25:44.362Z,98.01
2022-09-26T02:25:54.381Z,98.01
2022-09-26T02:26:04.368Z,97.91
2022-09-26T02:26:14.375Z,97.91
2022-09-26T02:26:24.388Z,97.91
2022-09-26T02:26:34.373Z,97.91
2022-09-26T02:26:44.366Z,97.81
2022-09-26T02:26:54.380Z,97.71
2022-09-26T02:27:04.367Z,97.71
2022-09-26T02:27:14.367Z,97.60
2022-09-26T02:27:24.370Z,97.50
2022-09-26T02:27:34.373Z,97.50
2022-09-26T02:27:44.374Z,97.39
2022-09-26T02:27:54.411Z,97.50
2022-09-26T02:28:04.372Z,97.50
2022-09-26T02:28:14.371Z,97.50
2022-09-26T02:28:24.381Z,97.60
2022-09-26T02:28:34.370Z,97.60
2022-09-26T02:28:44.374Z,97.60
2022-09-26T02:28:54.388Z,97.60
2022-09-26T02:29:04.382Z,97.71
2022-09-26T02:29:14.532Z,97.71
2022-09-26T02:29:24.418Z,97.71
2022-09-26T02:29:34.383Z,97.81
2022-09-26T02:29:44.380Z,97.81
2022-09-26T02:29:54.387Z,97.81
2022-09-26T02:30:04.388Z,97.81
2022-09-26T02:30:14.387Z,97.91
2022-09-26T02:30:24.382Z,97.91
2022-09-26T02:30:34.380Z,97.91
2022-09-26T02:30:44.395Z,97.91
2022-09-26T02:30:54.384Z,97.91
2022-09-26T02:31:04.400Z,98.01